Time;durP1;ratioP1;P1;durP2;ratioP2;P2;SDS_P1;SDS_P2;PMS_P1;PMS_P2;Temp;Humidity;BMP_temperature;BMP_pressure;BME280_temperature;BME280_humidity;BME280_pressure;Samples;Min_cycle;Max_cycle;Signal;HPM_P1;HPM_P2
2023/04/11 00:02:05;;;;;;;8.98;2.00;;;6.80;99.90;;;;;;5041105;28;20482;-71
2023/04/11 00:04:32;;;;;;;7.72;1.60;;;6.90;99.90;;;;;;5037092;28;20139;-71
2023/04/11 00:06:59;;;;;;;7.78;2.10;;;6.80;99.90;;;;;;5043086;28;20037;-71
2023/04/11 00:09:24;;;;;;;8.68;1.75;;;6.80;99.90;;;;;;5046231;28;20041;-71
2023/04/11 00:11:50;;;;;;;11.77;1.92;;;6.80;99.90;;;;;;5044164;28;20049;-71
2023/04/11 00:14:16;;;;;;;8.27;1.80;;;6.70;99.90;;;;;;5046150;28;20071;-71
2023/04/11 00:16:42;;;;;;;7.78;1.92;;;6.70;99.90;;;;;;5047034;28;20120;-70
2023/04/11 00:19:08;;;;;;;10.65;2.20;;;6.70;99.90;;;;;;5045188;28;20147;-68
2023/04/11 00:21:38;;;;;;;11.18;2.40;;;6.70;99.90;;;;;;5045931;28;20037;-67
2023/04/11 00:24:06;;;;;;;12.88;1.92;;;6.60;99.90;;;;;;5047871;28;20416;-68
2023/04/11 00:26:31;;;;;;;8.65;2.38;;;6.60;99.90;;;;;;5051921;28;20036;-67
2023/04/11 00:28:57;;;;;;;16.75;2.47;;;6.70;99.90;;;;;;5045786;28;20098;-68
2023/04/11 00:31:22;;;;;;;8.98;2.58;;;6.60;99.90;;;;;;5043058;28;20107;-68
2023/04/11 00:33:48;;;;;;;13.73;2.65;;;6.70;99.90;;;;;;5041867;28;20116;-68
2023/04/11 00:36:14;;;;;;;15.73;2.67;;;6.80;99.90;;;;;;5044549;28;20127;-67
2023/04/11 00:38:41;;;;;;;14.32;2.67;;;6.80;99.90;;;;;;5046651;28;20036;-68
2023/04/11 00:41:07;;;;;;;10.85;2.65;;;6.80;99.90;;;;;;5049061;28;20045;-67
2023/04/11 00:43:32;;;;;;;17.52;2.83;;;6.90;99.90;;;;;;5046356;28;20361;-68
2023/04/11 00:45:58;;;;;;;11.30;2.58;;;6.90;99.90;;;;;;5048620;28;20029;-67
2023/04/11 00:48:27;;;;;;;15.95;2.85;;;6.90;99.90;;;;;;5047107;28;20041;-67
2023/04/11 00:50:53;;;;;;;16.63;2.70;;;6.90;99.90;;;;;;5046834;28;20040;-68
2023/04/11 00:53:19;;;;;;;16.63;3.05;;;6.90;99.90;;;;;;5034900;28;20045;-68
2023/04/11 00:55:45;;;;;;;11.20;2.88;;;7.00;99.90;;;;;;5048309;28;20040;-69
2023/04/11 00:58:11;;;;;;;15.95;3.40;;;7.00;99.90;;;;;;5046911;28;20037;-68
2023/04/11 01:00:37;;;;;;;11.20;2.78;;;7.00;99.90;;;;;;5047098;28;20132;-67
2023/04/11 01:03:03;;;;;;;14.80;3.30;;;7.00;99.90;;;;;;5047284;28;20400;-68
2023/04/11 01:05:31;;;;;;;14.80;3.40;;;6.90;99.90;;;;;;5048595;28;20028;-67
2023/04/11 01:07:57;;;;;;;14.15;3.20;;;7.00;99.90;;;;;;5047712;28;20388;-68
2023/04/11 01:10:23;;;;;;;14.52;2.80;;;6.90;99.90;;;;;;5045675;28;20048;-67
2023/04/11 01:12:49;;;;;;;11.85;3.55;;;6.90;99.90;;;;;;5045207;28;20055;-67
2023/04/11 01:15:15;;;;;;;20.52;3.30;;;6.90;99.90;;;;;;5043418;28;20361;-67
2023/04/11 01:17:41;;;;;;;18.00;3.30;;;6.90;99.90;;;;;;5046189;28;20048;-68
2023/04/11 01:20:08;;;;;;;17.27;3.55;;;6.90;99.90;;;;;;5045981;28;20029;-67
2023/04/11 01:22:36;;;;;;;21.08;3.97;;;6.90;99.90;;;;;;5048983;28;20029;-68
2023/04/11 01:25:02;;;;;;;20.30;3.80;;;6.90;99.90;;;;;;5050326;28;20065;-68
2023/04/11 01:27:28;;;;;;;17.27;3.45;;;6.90;99.90;;;;;;5051766;28;20406;-70
2023/04/11 01:29:54;;;;;;;20.15;3.67;;;7.00;99.90;;;;;;5043928;28;20036;-68
2023/04/11 01:32:19;;;;;;;15.15;3.60;;;7.00;99.90;;;;;;5046896;28;20041;-67
2023/04/11 01:34:48;;;;;;;15.88;3.35;;;7.00;99.90;;;;;;5056582;28;20036;-67
2023/04/11 01:37:14;;;;;;;18.35;3.75;;;7.00;99.90;;;;;;5048511;28;20072;-69
2023/04/11 01:39:39;;;;;;;19.73;3.90;;;7.00;99.90;;;;;;5043101;28;20080;-68
2023/04/11 01:42:05;;;;;;;15.90;3.80;;;7.00;99.90;;;;;;5042548;28;20076;-67
2023/04/11 01:44:32;;;;;;;16.50;3.17;;;6.90;99.90;;;;;;5038896;28;20041;-69
2023/04/11 01:46:58;;;;;;;16.63;3.50;;;6.90;99.90;;;;;;5044066;28;20147;-68
2023/04/11 01:49:24;;;;;;;20.45;3.47;;;7.00;99.90;;;;;;5042090;28;20064;-69
2023/04/11 01:51:50;;;;;;;19.65;4.07;;;7.00;99.90;;;;;;5047230;28;20037;-68
2023/04/11 01:54:16;;;;;;;20.27;3.63;;;7.00;99.90;;;;;;5045877;28;20056;-70
2023/04/11 01:56:41;;;;;;;18.15;3.70;;;7.00;99.90;;;;;;5044776;28;20033;-68
2023/04/11 01:59:07;;;;;;;20.95;3.92;;;7.10;99.90;;;;;;5043773;28;20124;-68
2023/04/11 02:01:34;;;;;;;13.82;3.25;;;7.10;99.90;;;;;;5044327;28;20456;-71
2023/04/11 02:04:00;;;;;;;13.77;4.30;;;7.10;99.90;;;;;;5043881;28;20040;-69
2023/04/11 02:06:28;;;;;;;20.20;3.63;;;7.10;99.90;;;;;;5045404;28;20090;-69
2023/04/11 02:08:54;;;;;;;23.50;4.00;;;7.10;99.90;;;;;;5043331;28;20071;-68
2023/04/11 02:11:20;;;;;;;24.10;4.22;;;7.10;99.90;;;;;;5044225;28;20045;-70
2023/04/11 02:13:45;;;;;;;23.92;4.45;;;7.10;99.90;;;;;;5046561;28;20037;-65
2023/04/11 02:16:16;;;;;;;27.63;4.72;;;7.20;99.90;;;;;;5051732;28;20506;-67
2023/04/11 02:18:44;;;;;;;25.05;5.03;;;7.10;99.90;;;;;;5046249;28;20033;-66
2023/04/11 02:21:10;;;;;;;26.55;4.13;;;7.10;99.90;;;;;;5046636;28;20047;-66
2023/04/11 02:23:36;;;;;;;29.95;3.85;;;7.10;99.90;;;;;;5048699;28;20542;-67
2023/04/11 02:26:02;;;;;;;35.38;4.85;;;7.20;99.90;;;;;;5052247;28;20124;-67
2023/04/11 02:28:28;;;;;;;24.92;5.00;;;7.10;99.90;;;;;;5049247;28;20056;-66
2023/04/11 02:30:54;;;;;;;23.27;4.43;;;7.20;99.90;;;;;;5047575;28;20037;-67
2023/04/11 02:33:20;;;;;;;24.60;4.30;;;7.30;99.90;;;;;;5046585;28;20045;-67
2023/04/11 02:35:46;;;;;;;28.95;5.40;;;7.40;99.90;;;;;;5042599;28;20037;-68
2023/04/11 02:38:13;;;;;;;20.95;4.22;;;7.50;99.90;;;;;;5046527;28;20048;-67
2023/04/11 02:40:39;;;;;;;32.65;4.65;;;7.50;99.90;;;;;;5044769;28;20033;-68
2023/04/11 02:43:05;;;;;;;30.65;4.25;;;7.60;99.90;;;;;;5047625;28;20446;-66
2023/04/11 02:45:30;;;;;;;29.50;4.30;;;7.60;99.90;;;;;;5031717;28;20029;-66
2023/04/11 02:47:57;;;;;;;28.08;4.45;;;7.70;99.90;;;;;;5039827;28;20045;-65
2023/04/11 02:50:26;;;;;;;29.05;4.35;;;7.60;99.90;;;;;;5042919;28;20045;-64
2023/04/11 02:52:52;;;;;;;31.77;4.80;;;7.70;99.90;;;;;;5042743;28;20036;-66
2023/04/11 02:55:18;;;;;;;21.90;4.50;;;7.80;99.90;;;;;;5043529;28;20122;-66
2023/04/11 02:57:43;;;;;;;25.90;4.65;;;7.70;99.90;;;;;;5046520;28;20032;-65
2023/04/11 03:00:10;;;;;;;29.58;4.85;;;7.80;99.90;;;;;;5046951;28;20032;-65
2023/04/11 03:02:35;;;;;;;27.95;4.45;;;7.80;99.90;;;;;;5047306;28;20044;-66
2023/04/11 03:05:04;;;;;;;30.23;4.05;;;7.80;99.90;;;;;;5034590;28;20425;-67
2023/04/11 03:07:31;;;;;;;27.52;3.85;;;7.90;99.90;;;;;;5046489;28;20033;-68
2023/04/11 03:09:56;;;;;;;20.92;4.20;;;7.90;99.90;;;;;;5042100;28;20045;-65
2023/04/11 03:12:22;;;;;;;22.35;3.78;;;8.00;99.90;;;;;;5064368;28;20075;-66
2023/04/11 03:14:48;;;;;;;18.75;3.40;;;8.00;99.90;;;;;;5045125;28;20028;-67
2023/04/11 03:17:13;;;;;;;24.63;3.22;;;8.10;99.90;;;;;;5046985;28;20387;-67
2023/04/11 03:19:39;;;;;;;17.85;3.03;;;8.10;99.90;;;;;;5045455;28;20447;-68
2023/04/11 03:22:04;;;;;;;14.82;2.60;;;8.10;99.90;;;;;;5045603;28;20048;-66
2023/04/11 03:24:31;;;;;;;18.83;2.90;;;8.10;99.90;;;;;;5046924;28;20048;-66
2023/04/11 03:26:57;;;;;;;14.73;2.72;;;8.10;99.90;;;;;;5043798;28;20040;-67
2023/04/11 03:29:23;;;;;;;16.48;2.88;;;8.10;99.90;;;;;;5043145;28;20380;-66
2023/04/11 03:31:49;;;;;;;18.02;2.80;;;8.00;99.90;;;;;;5044966;28;20068;-67
2023/04/11 03:34:16;;;;;;;16.15;2.78;;;8.10;99.90;;;;;;5030114;28;20041;-66
2023/04/11 03:36:42;;;;;;;14.23;2.70;;;8.10;99.90;;;;;;5044545;28;20045;-66
2023/04/11 03:39:08;;;;;;;16.60;2.90;;;8.00;99.90;;;;;;5044035;28;22136;-68
2023/04/11 03:41:33;;;;;;;15.80;3.50;;;8.10;99.90;;;;;;5048996;28;20064;-66
2023/04/11 03:43:59;;;;;;;14.32;2.80;;;8.10;99.90;;;;;;5050808;28;20442;-66
2023/04/11 03:46:25;;;;;;;18.40;2.70;;;8.10;99.90;;;;;;5046883;28;20446;-66
2023/04/11 03:48:50;;;;;;;11.02;2.35;;;8.10;99.90;;;;;;5048298;28;20033;-67
2023/04/11 03:51:16;;;;;;;13.02;2.20;;;8.10;99.90;;;;;;5051550;28;20047;-64
2023/04/11 03:53:44;;;;;;;15.75;2.60;;;8.10;99.90;;;;;;5052827;28;20039;-64
2023/04/11 03:56:09;;;;;;;14.80;2.55;;;8.10;99.90;;;;;;5047978;28;20099;-67
2023/04/11 03:58:35;;;;;;;13.27;3.10;;;8.10;99.90;;;;;;5048263;28;20072;-67
2023/04/11 04:01:01;;;;;;;12.57;2.50;;;8.10;99.90;;;;;;5046026;28;20159;-66
2023/04/11 04:03:27;;;;;;;20.23;3.13;;;8.10;99.90;;;;;;5048957;28;20044;-66
2023/04/11 04:05:53;;;;;;;16.77;3.33;;;8.10;99.90;;;;;;5048972;28;20475;-65
2023/04/11 04:08:18;;;;;;;16.42;2.95;;;8.10;99.90;;;;;;5048390;28;20045;-65
2023/04/11 04:10:45;;;;;;;21.45;3.17;;;8.10;99.90;;;;;;5049413;28;20140;-66
2023/04/11 04:13:11;;;;;;;17.13;3.03;;;8.10;99.90;;;;;;5046955;28;20098;-66
2023/04/11 04:15:37;;;;;;;11.85;2.47;;;8.10;99.90;;;;;;5048447;28;20037;-67
2023/04/11 04:18:02;;;;;;;12.50;2.80;;;8.10;99.90;;;;;;5046942;28;20110;-66
2023/04/11 04:20:28;;;;;;;15.80;2.95;;;8.10;99.90;;;;;;5048904;28;20388;-66
2023/04/11 04:22:54;;;;;;;12.82;2.55;;;8.10;99.90;;;;;;5049006;28;20029;-67
2023/04/11 04:25:20;;;;;;;16.33;2.88;;;8.00;99.90;;;;;;5050456;28;20033;-67
2023/04/11 04:27:46;;;;;;;8.15;2.80;;;8.00;99.90;;;;;;5032407;28;20040;-66
2023/04/11 04:30:14;;;;;;;15.48;3.00;;;8.00;99.90;;;;;;5050669;28;20476;-66
2023/04/11 04:32:44;;;;;;;13.27;3.20;;;8.00;99.90;;;;;;5049973;28;20130;-66
2023/04/11 04:35:10;;;;;;;15.90;3.00;;;8.00;99.90;;;;;;5051243;28;20391;-66
2023/04/11 04:37:44;;;;;;;10.27;2.58;;;7.90;99.90;;;;;;5051633;28;20083;-66
2023/04/11 04:40:14;;;;;;;11.65;2.97;;;7.90;99.90;;;;;;5050538;28;20040;-66
2023/04/11 04:42:40;;;;;;;11.55;2.80;;;7.90;99.90;;;;;;5052695;28;20037;-66
2023/04/11 04:45:07;;;;;;;13.20;3.25;;;7.90;99.90;;;;;;5051167;28;20427;-67
2023/04/11 04:47:35;;;;;;;11.98;3.00;;;7.90;99.90;;;;;;5050204;28;20045;-66
2023/04/11 04:50:00;;;;;;;12.75;3.10;;;7.90;99.90;;;;;;5050155;28;20072;-67
2023/04/11 04:52:27;;;;;;;10.82;2.45;;;7.80;99.90;;;;;;5051863;28;20072;-66
2023/04/11 04:54:57;;;;;;;8.10;3.05;;;7.80;99.90;;;;;;5048960;28;20498;-66
2023/04/11 04:57:23;;;;;;;14.90;3.15;;;7.70;99.90;;;;;;5050163;28;20114;-64
2023/04/11 04:59:49;;;;;;;13.32;2.85;;;7.80;99.90;;;;;;5049324;28;20044;-67
2023/04/11 05:02:16;;;;;;;13.15;3.08;;;7.80;99.90;;;;;;5046569;28;20111;-65
2023/04/11 05:04:43;;;;;;;11.30;2.85;;;7.80;99.90;;;;;;5044722;28;20075;-66
2023/04/11 05:07:09;;;;;;;11.63;3.25;;;7.80;99.90;;;;;;5052421;28;20040;-66
2023/04/11 05:09:35;;;;;;;10.82;2.72;;;7.80;99.90;;;;;;5050868;28;20072;-66
2023/04/11 05:12:01;;;;;;;11.77;2.72;;;7.80;99.90;;;;;;5031844;28;20072;-67
2023/04/11 05:14:27;;;;;;;12.52;2.30;;;7.80;99.90;;;;;;5032358;28;20041;-65
2023/04/11 05:16:52;;;;;;;7.80;1.90;;;7.80;99.90;;;;;;5049799;28;20048;-67
2023/04/11 05:19:18;;;;;;;8.52;2.28;;;7.80;99.90;;;;;;5052752;28;20049;-67
2023/04/11 05:21:43;;;;;;;11.75;2.70;;;7.70;99.90;;;;;;5046340;28;20036;-64
2023/04/11 05:24:09;;;;;;;11.38;2.30;;;7.70;99.90;;;;;;5046078;28;20111;-66
2023/04/11 05:26:35;;;;;;;6.82;1.90;;;7.70;99.90;;;;;;5043563;28;20128;-68
2023/04/11 05:29:00;;;;;;;10.70;2.42;;;7.70;99.90;;;;;;5030809;28;20072;-65
2023/04/11 05:31:26;;;;;;;7.18;2.35;;;7.80;99.90;;;;;;5053436;28;20115;-65
2023/04/11 05:33:52;;;;;;;13.13;2.38;;;7.80;99.90;;;;;;5047270;28;20047;-69
2023/04/11 05:36:17;;;;;;;12.77;2.20;;;7.90;99.90;;;;;;5048242;28;20396;-66
2023/04/11 05:38:44;;;;;;;13.10;2.50;;;7.90;99.90;;;;;;5043675;28;20041;-66
2023/04/11 05:41:10;;;;;;;8.60;2.30;;;7.90;99.90;;;;;;5045525;28;20044;-64
2023/04/11 05:43:36;;;;;;;10.63;2.63;;;7.90;99.90;;;;;;5044096;28;20073;-68
2023/04/11 05:46:03;;;;;;;13.65;2.75;;;7.90;99.90;;;;;;5046315;28;20040;-66
2023/04/11 05:48:28;;;;;;;9.02;2.10;;;8.00;99.90;;;;;;5042835;28;20059;-65
2023/04/11 05:50:56;;;;;;;7.03;2.22;;;8.00;99.90;;;;;;5062044;28;20124;-64
2023/04/11 05:53:21;;;;;;;7.93;2.50;;;8.00;99.90;;;;;;5046663;28;20587;-67
2023/04/11 05:55:47;;;;;;;14.10;2.92;;;8.00;99.90;;;;;;5047854;28;20077;-66
2023/04/11 05:58:12;;;;;;;9.30;2.05;;;8.00;99.90;;;;;;5045578;28;20051;-65
2023/04/11 06:00:38;;;;;;;10.40;2.10;;;8.10;99.90;;;;;;5045771;28;20036;-67
2023/04/11 06:03:04;;;;;;;16.20;2.90;;;8.10;99.90;;;;;;5044070;28;20483;-66
2023/04/11 06:05:32;;;;;;;14.07;2.90;;;8.10;99.90;;;;;;5045070;28;20523;-65
2023/04/11 06:07:59;;;;;;;8.68;2.58;;;8.10;99.90;;;;;;5048975;28;20456;-66
2023/04/11 06:10:25;;;;;;;12.07;3.10;;;8.10;99.90;;;;;;5044057;28;20041;-63
2023/04/11 06:12:51;;;;;;;9.23;2.40;;;8.10;99.90;;;;;;5045310;28;20526;-67
2023/04/11 06:15:16;;;;;;;10.13;2.13;;;8.10;99.90;;;;;;5049161;28;20163;-66
2023/04/11 06:17:43;;;;;;;12.00;2.80;;;8.20;99.90;;;;;;5045807;28;20467;-65
2023/04/11 06:20:09;;;;;;;10.27;2.53;;;8.20;99.90;;;;;;5046459;28;20534;-65
2023/04/11 06:22:35;;;;;;;14.80;2.55;;;8.20;99.90;;;;;;5051141;28;20044;-65
2023/04/11 06:25:01;;;;;;;10.82;2.50;;;8.10;99.90;;;;;;5060241;28;20041;-65
2023/04/11 06:27:26;;;;;;;12.45;2.42;;;8.10;99.90;;;;;;5045268;28;20047;-65
2023/04/11 06:29:52;;;;;;;11.88;2.13;;;8.20;99.90;;;;;;5044762;28;20033;-65
2023/04/11 06:32:18;;;;;;;13.45;2.15;;;8.10;99.90;;;;;;5045557;28;20472;-65
2023/04/11 06:34:44;;;;;;;12.10;2.65;;;8.20;99.90;;;;;;5062314;28;20392;-66
2023/04/11 06:37:09;;;;;;;15.40;2.40;;;8.20;99.90;;;;;;5048702;28;20041;-65
2023/04/11 06:39:35;;;;;;;12.95;2.30;;;8.20;99.90;;;;;;5051006;28;20044;-65
2023/04/11 06:42:02;;;;;;;10.43;2.08;;;8.30;99.90;;;;;;5047623;28;20449;-65
2023/04/11 06:44:28;;;;;;;8.48;2.17;;;8.30;99.90;;;;;;5028221;28;20128;-67
2023/04/11 06:46:53;;;;;;;13.95;2.55;;;8.30;99.90;;;;;;5044097;28;20125;-64
2023/04/11 06:49:19;;;;;;;9.63;2.25;;;8.30;99.90;;;;;;5042677;28;20123;-67
2023/04/11 06:51:49;;;;;;;10.23;1.90;;;8.40;99.90;;;;;;5040859;28;20045;-65
2023/04/11 06:54:15;;;;;;;8.30;1.77;;;8.40;99.90;;;;;;5043015;28;20459;-66
2023/04/11 06:56:42;;;;;;;13.18;2.20;;;8.40;99.90;;;;;;5040263;28;20052;-65
2023/04/11 06:59:07;;;;;;;7.85;2.10;;;8.40;99.90;;;;;;5042607;28;20099;-66
2023/04/11 07:01:38;;;;;;;10.43;2.10;;;8.40;99.90;;;;;;5046185;28;20045;-65
2023/04/11 07:04:05;;;;;;;12.90;2.13;;;8.40;99.90;;;;;;5048107;28;20045;-64
2023/04/11 07:06:34;;;;;;;12.57;2.40;;;8.40;99.90;;;;;;5042794;28;20055;-66
2023/04/11 07:09:00;;;;;;;15.18;2.83;;;8.40;99.90;;;;;;5038900;28;20041;-65
2023/04/11 07:11:26;;;;;;;12.50;2.15;;;8.50;99.90;;;;;;5042947;28;20342;-64
2023/04/11 07:13:52;;;;;;;12.07;2.22;;;8.50;99.90;;;;;;5054807;28;20049;-67
2023/04/11 07:16:17;;;;;;;13.38;2.45;;;8.50;99.90;;;;;;5045796;28;20041;-65
2023/04/11 07:18:43;;;;;;;15.32;2.72;;;8.50;99.90;;;;;;5042908;28;20045;-65
2023/04/11 07:21:12;;;;;;;12.90;2.53;;;8.50;99.90;;;;;;5046004;28;20074;-65
2023/04/11 07:23:39;;;;;;;15.55;2.13;;;8.50;99.90;;;;;;5046206;28;20060;-65
2023/04/11 07:26:05;;;;;;;8.90;2.00;;;8.60;99.90;;;;;;5047723;28;20045;-65
2023/04/11 07:28:30;;;;;;;15.93;3.08;;;8.60;99.90;;;;;;5049111;28;20157;-65
2023/04/11 07:30:57;;;;;;;10.93;1.90;;;8.70;99.90;;;;;;5053061;28;20047;-64
2023/04/11 07:33:23;;;;;;;10.45;1.88;;;8.80;99.90;;;;;;5051449;28;20492;-65
2023/04/11 07:35:49;;;;;;;11.43;2.53;;;8.90;99.90;;;;;;5047279;28;20048;-62
2023/04/11 07:38:25;;;;;;;11.13;2.35;;;8.90;99.90;;;;;;5047343;28;20044;-65
2023/04/11 07:40:52;;;;;;;6.65;1.85;;;8.90;99.90;;;;;;5044877;28;20041;-65
2023/04/11 07:43:17;;;;;;;12.07;2.20;;;8.90;99.90;;;;;;5052584;28;20394;-66
2023/04/11 07:45:43;;;;;;;14.38;2.72;;;8.90;99.90;;;;;;5044566;28;20037;-66
2023/04/11 07:48:08;;;;;;;12.77;2.63;;;8.80;99.90;;;;;;5061233;28;20487;-64
2023/04/11 07:50:34;;;;;;;7.30;1.63;;;8.80;99.90;;;;;;5064888;28;20036;-65
2023/04/11 07:53:00;;;;;;;14.00;2.20;;;8.90;99.90;;;;;;5052534;28;20043;-65
2023/04/11 07:55:26;;;;;;;12.98;2.63;;;9.00;99.90;;;;;;5048768;28;20059;-68
2023/04/11 07:57:51;;;;;;;18.02;2.55;;;9.00;99.90;;;;;;5046479;28;20063;-64
2023/04/11 08:00:23;;;;;;;10.25;2.47;;;9.10;99.90;;;;;;5050560;28;20040;-66
2023/04/11 08:02:50;;;;;;;15.75;2.55;;;9.10;99.90;;;;;;5044572;28;20484;-65
2023/04/11 08:05:16;;;;;;;15.25;2.67;;;9.20;99.90;;;;;;5049472;28;20094;-66
2023/04/11 08:07:42;;;;;;;10.38;2.10;;;9.20;99.90;;;;;;5049096;28;20487;-65
2023/04/11 08:10:08;;;;;;;13.55;2.50;;;9.30;99.90;;;;;;5051459;28;20036;-64
2023/04/11 08:12:36;;;;;;;9.13;2.53;;;9.40;99.90;;;;;;5047493;28;20159;-66
2023/04/11 08:15:01;;;;;;;8.20;2.50;;;9.30;99.90;;;;;;5051606;28;20146;-66
2023/04/11 08:17:27;;;;;;;16.50;2.50;;;9.50;99.90;;;;;;5048361;28;20091;-65
2023/04/11 08:19:56;;;;;;;9.82;2.20;;;9.30;99.90;;;;;;5049970;28;20052;-64
2023/04/11 08:22:22;;;;;;;15.18;2.67;;;9.20;99.90;;;;;;5047276;28;20037;-66
2023/04/11 08:24:48;;;;;;;14.85;2.78;;;9.10;99.90;;;;;;5038069;28;20040;-67
2023/04/11 08:27:13;;;;;;;10.70;2.30;;;9.10;99.90;;;;;;5045509;28;20041;-65
2023/04/11 08:29:39;;;;;;;12.48;2.80;;;8.90;99.90;;;;;;5044112;28;20045;-66
2023/04/11 08:32:05;;;;;;;13.73;2.72;;;8.90;99.90;;;;;;5041710;28;20139;-66
2023/04/11 08:34:31;;;;;;;10.73;2.70;;;9.00;99.90;;;;;;5046872;28;20063;-67
2023/04/11 08:36:57;;;;;;;12.98;2.90;;;9.00;99.90;;;;;;5050186;28;20119;-66
2023/04/11 08:39:22;;;;;;;12.70;2.35;;;9.40;99.90;;;;;;5046679;28;20094;-65
2023/04/11 08:41:48;;;;;;;14.07;2.80;;;9.50;99.90;;;;;;5051590;28;20082;-66
2023/04/11 08:44:14;;;;;;;10.18;2.42;;;9.70;99.90;;;;;;5045998;28;20143;-67
2023/04/11 08:46:41;;;;;;;11.27;2.10;;;9.80;99.90;;;;;;5045721;28;20045;-65
2023/04/11 08:49:06;;;;;;;7.75;1.80;;;9.80;99.90;;;;;;5046523;28;20049;-66
2023/04/11 08:51:32;;;;;;;6.05;1.77;;;9.60;99.90;;;;;;5045204;28;20048;-66
2023/04/11 08:54:02;;;;;;;16.20;3.05;;;9.30;99.90;;;;;;5043556;28;20838;-63
2023/04/11 08:56:28;;;;;;;10.43;2.60;;;8.70;99.90;;;;;;5043432;28;20056;-65
2023/04/11 08:58:54;;;;;;;13.63;3.15;;;8.20;99.90;;;;;;5045070;28;20041;-67
2023/04/11 09:01:36;;;;;;;14.45;3.05;;;8.20;99.90;;;;;;5041286;28;20415;-65
2023/04/11 09:04:04;;;;;;;11.97;2.97;;;8.20;99.90;;;;;;5044298;28;20064;-65
2023/04/11 09:06:32;;;;;;;9.18;2.25;;;8.30;99.90;;;;;;5039612;28;21478;-66
2023/04/11 09:08:59;;;;;;;13.85;2.75;;;8.50;99.90;;;;;;5044875;28;20385;-66
2023/04/11 09:11:25;;;;;;;14.48;2.75;;;8.80;99.90;;;;;;5045049;28;20131;-65
2023/04/11 09:14:08;;;;;;;16.90;2.70;;;9.20;99.90;;;;;;5030795;28;20040;-65
2023/04/11 09:16:34;;;;;;;11.48;1.98;;;9.40;99.90;;;;;;5046670;28;20480;-66
2023/04/11 09:19:00;;;;;;;12.88;2.25;;;9.30;99.90;;;;;;5046985;28;20041;-63
2023/04/11 09:21:28;;;;;;;8.30;2.05;;;9.20;99.90;;;;;;5043775;28;20037;-67
2023/04/11 09:24:12;;;;;;;12.73;2.15;;;9.30;99.90;;;;;;5042625;28;20184;-66
2023/04/11 09:26:37;;;;;;;10.43;2.70;;;9.40;99.90;;;;;;5051708;28;20037;-66
2023/04/11 09:29:03;;;;;;;12.23;2.85;;;9.40;99.90;;;;;;5052759;28;20194;-64
2023/04/11 09:31:47;;;;;;;12.57;2.38;;;9.40;99.90;;;;;;5057914;28;20096;-66
2023/04/11 09:34:22;;;;;;;17.15;3.05;;;9.50;99.90;;;;;;5045083;28;20388;-65
2023/04/11 09:36:53;;;;;;;13.93;2.55;;;9.70;99.90;;;;;;5048382;28;20044;-66
2023/04/11 09:39:19;;;;;;;19.70;3.30;;;10.30;99.90;;;;;;5051854;28;20045;-66
2023/04/11 09:41:45;;;;;;;13.68;3.05;;;10.20;99.90;;;;;;5041593;28;20045;-66
2023/04/11 09:44:11;;;;;;;14.35;3.30;;;9.30;99.90;;;;;;5059027;28;20039;-66
2023/04/11 09:46:55;;;;;;;14.18;2.53;;;9.00;99.90;;;;;;5054419;28;20466;-67
2023/04/11 09:49:22;;;;;;;16.30;2.75;;;8.60;99.90;;;;;;5044601;28;20291;-66
2023/04/11 09:51:49;;;;;;;15.43;2.75;;;8.30;99.90;;;;;;5048245;28;20079;-67
2023/04/11 09:54:15;;;;;;;13.00;2.28;;;8.20;99.90;;;;;;5049428;28;20466;-66
2023/04/11 09:56:41;;;;;;;11.73;2.22;;;8.30;99.90;;;;;;5045373;28;20044;-65
2023/04/11 09:59:07;;;;;;;12.95;2.50;;;8.90;99.90;;;;;;5050026;28;20048;-67
2023/04/11 10:01:34;;;;;;;11.07;2.55;;;9.10;99.90;;;;;;5068941;28;20036;-68
2023/04/11 10:04:00;;;;;;;11.75;2.22;;;9.20;99.90;;;;;;5056320;28;20554;-66
2023/04/11 10:06:33;;;;;;;11.52;2.05;;;9.20;99.90;;;;;;5049510;28;20041;-66
2023/04/11 10:09:07;;;;;;;10.40;2.97;;;9.20;99.90;;;;;;5068689;28;20491;-66
2023/04/11 10:11:33;;;;;;;13.93;2.20;;;9.30;99.90;;;;;;5054028;28;20041;-66
2023/04/11 10:13:58;;;;;;;13.52;2.42;;;9.60;99.90;;;;;;5070047;28;20081;-66
2023/04/11 10:16:25;;;;;;;18.20;3.10;;;9.60;99.90;;;;;;5057704;28;20044;-69
2023/04/11 10:18:54;;;;;;;16.55;2.55;;;9.60;99.90;;;;;;5047545;28;20595;-65
2023/04/11 10:21:35;;;;;;;15.20;2.47;;;9.20;99.90;;;;;;5048740;28;20091;-67
2023/04/11 10:24:11;;;;;;;16.73;2.42;;;9.10;99.90;;;;;;5051862;28;20037;-66
2023/04/11 10:26:59;;;;;;;12.60;2.45;;;9.40;99.90;;;;;;5049513;28;20095;-67
2023/04/11 10:29:27;;;;;;;6.18;1.60;;;9.10;99.90;;;;;;5050624;28;20098;-68
2023/04/11 10:32:09;;;;;;;13.05;2.00;;;8.10;99.90;;;;;;5033831;28;20380;-65
2023/04/11 10:34:37;;;;;;;16.55;2.97;;;8.00;99.90;;;;;;5044460;28;20044;-69
2023/04/11 10:37:09;;;;;;;14.48;2.67;;;8.50;99.90;;;;;;5047835;28;20047;-65
2023/04/11 10:39:47;;;;;;;10.77;3.13;;;8.90;99.90;;;;;;5048166;28;20063;-64
2023/04/11 10:42:42;;;;;;;11.57;2.40;;;9.50;99.90;;;;;;5051203;28;20041;-67
2023/04/11 10:45:25;;;;;;;13.90;3.00;;;9.90;99.90;;;;;;5039863;28;20053;-67
2023/04/11 10:47:50;;;;;;;12.88;2.85;;;9.80;99.90;;;;;;5041856;28;20048;-65
2023/04/11 10:50:25;;;;;;;18.55;2.60;;;9.70;99.90;;;;;;5048483;28;20045;-68
2023/04/11 10:52:51;;;;;;;18.58;2.63;;;9.60;99.90;;;;;;5047999;28;20043;-66
2023/04/11 10:55:17;;;;;;;22.20;2.97;;;9.70;99.90;;;;;;5048814;28;20392;-67
2023/04/11 10:58:01;;;;;;;11.88;2.17;;;10.20;99.90;;;;;;5048726;28;20033;-65
2023/04/11 11:00:27;;;;;;;12.73;2.30;;;10.50;99.90;;;;;;5048240;28;20040;-66
2023/04/11 11:02:53;;;;;;;10.02;2.47;;;10.80;99.90;;;;;;5049339;28;20510;-67
2023/04/11 11:05:20;;;;;;;15.85;2.63;;;11.00;99.90;;;;;;5048317;28;20544;-65
2023/04/11 11:07:47;;;;;;;14.85;2.13;;;10.70;99.90;;;;;;5046284;28;20610;-67
2023/04/11 11:10:12;;;;;;;9.90;2.25;;;10.40;99.90;;;;;;5049046;28;20040;-66
2023/04/11 11:12:52;;;;;;;13.50;2.13;;;10.30;99.90;;;;;;5064807;28;20041;-66
2023/04/11 11:15:18;;;;;;;9.48;1.90;;;10.60;99.90;;;;;;5049881;28;20041;-67
2023/04/11 11:17:43;;;;;;;13.98;2.20;;;10.70;99.90;;;;;;5045553;28;20427;-67
2023/04/11 11:20:18;;;;;;;12.38;2.60;;;10.40;99.90;;;;;;5046262;28;20045;-69
2023/04/11 11:22:57;;;;;;;12.05;2.42;;;10.70;99.90;;;;;;5048669;28;20044;-67
2023/04/11 11:25:24;;;;;;;17.60;2.83;;;10.80;99.90;;;;;;5049168;28;20613;-66
2023/04/11 11:28:00;;;;;;;12.07;2.20;;;10.50;99.90;;;;;;5048597;28;20048;-66
2023/04/11 11:30:27;;;;;;;13.02;2.63;;;10.50;99.90;;;;;;5046241;28;20505;-66
2023/04/11 11:32:52;;;;;;;13.48;2.10;;;10.60;99.90;;;;;;5061940;28;20040;-66
2023/04/11 11:35:18;;;;;;;13.85;1.95;;;10.40;99.90;;;;;;5061051;28;20514;-66
2023/04/11 11:37:44;;;;;;;14.20;2.58;;;10.00;99.90;;;;;;5047345;28;20037;-65
2023/04/11 11:40:13;;;;;;;17.58;3.15;;;9.90;99.90;;;;;;5043539;28;20049;-65
2023/04/11 11:42:39;;;;;;;9.13;2.05;;;10.10;99.90;;;;;;5046952;28;20056;-66
2023/04/11 11:45:21;;;;;;;17.23;2.47;;;10.10;99.90;;;;;;5040360;28;20391;-66
2023/04/11 11:47:48;;;;;;;11.13;2.63;;;9.90;99.90;;;;;;5049000;28;20360;-67
2023/04/11 11:50:28;;;;;;;16.52;2.63;;;9.80;99.90;;;;;;5046815;28;20537;-65
2023/04/11 11:52:55;;;;;;;16.00;2.40;;;9.60;99.90;;;;;;5049442;28;20041;-67
2023/04/11 11:55:23;;;;;;;13.98;2.00;;;9.60;99.90;;;;;;5047404;28;20519;-69
2023/04/11 11:57:49;;;;;;;8.25;1.63;;;9.60;99.90;;;;;;5048361;28;20395;-66
2023/04/11 12:00:23;;;;;;;14.90;2.70;;;9.60;99.90;;;;;;5048384;28;20406;-68
2023/04/11 12:02:51;;;;;;;13.32;2.35;;;9.50;99.90;;;;;;5050549;28;20040;-67
2023/04/11 12:05:17;;;;;;;19.90;3.60;;;9.50;99.90;;;;;;5046947;28;20045;-66
2023/04/11 12:07:42;;;;;;;42.47;12.68;;;9.40;99.90;;;;;;5048506;28;20033;-67
2023/04/11 12:10:12;;;;;;;44.90;11.60;;;9.50;99.90;;;;;;5047534;28;20037;-66
2023/04/11 12:12:43;;;;;;;38.40;11.75;;;9.60;99.90;;;;;;5046053;28;20078;-66
2023/04/11 12:15:19;;;;;;;31.55;7.07;;;9.80;99.90;;;;;;5062220;28;20049;-65
2023/04/11 12:17:52;;;;;;;22.63;4.40;;;10.10;99.90;;;;;;5049098;28;20029;-65
2023/04/11 12:20:23;;;;;;;15.07;2.60;;;10.60;99.90;;;;;;5050610;28;20098;-65
2023/04/11 12:22:49;;;;;;;13.02;2.88;;;10.40;99.90;;;;;;5049119;28;20047;-67
2023/04/11 12:25:15;;;;;;;15.27;2.97;;;10.30;99.90;;;;;;5050287;28;20033;-65
2023/04/11 12:27:42;;;;;;;16.13;2.90;;;10.20;99.90;;;;;;5047247;28;20153;-65
2023/04/11 12:30:09;;;;;;;10.35;2.30;;;10.60;99.90;;;;;;5045231;28;20045;-68
2023/04/11 12:32:37;;;;;;;14.10;3.17;;;11.10;99.90;;;;;;5052992;28;20064;-66
2023/04/11 12:35:04;;;;;;;13.65;2.65;;;11.30;99.90;;;;;;5051908;28;20437;-66
2023/04/11 12:37:30;;;;;;;12.50;2.60;;;11.40;99.90;;;;;;5047683;28;20029;-66
2023/04/11 12:39:56;;;;;;;15.30;2.40;;;11.40;99.90;;;;;;5046469;28;20546;-64
2023/04/11 12:42:21;;;;;;;12.55;2.97;;;11.60;99.90;;;;;;5047778;28;20037;-66
2023/04/11 12:44:47;;;;;;;14.38;2.20;;;11.80;99.90;;;;;;5045810;28;20476;-66
2023/04/11 12:47:13;;;;;;;16.88;3.08;;;11.80;99.90;;;;;;5044904;28;20029;-66
2023/04/11 12:49:39;;;;;;;10.05;2.33;;;11.30;99.90;;;;;;5046750;28;20510;-66